Aviation Digital Data Service (ADDS)

Output produced by METARs form (0600 UTC 20 October 2018)
found at http://www.aviationweather.gov/metar/data/
 
FYWE 200500Z 12008KT CAVOK 20/M01 Q1022
TAF FYWE 200500Z 2006/2015 12008KT CAVOK 
     BECMG 2009/2011 9999 SCT050
       
FYGF 200500Z 28003KT 9999 FEW045 18/07 Q1019
TAF FYGF 200500Z 2006/2015 28003KT 9999 FEW045 
     BECMG 2009/2011 06005KT SCT040TCU 
     PROB30 
     TEMPO 2012/2015 -TSRA FEW035CB
       
FYWH 200500Z 16007KT CAVOK 20/M05 Q1023 NOSIG
TAF FYWH 200400Z 2006/2106 18010KT CAVOK 
     BECMG 2007/2009 12010KT 9999 SCT045 
     BECMG 2013/2015 23004KT 
     BECMG 2019/2021 10007KT CAVOK
       
FYKT 200500Z 00000KT CAVOK 18/M02 Q1020
TAF FYKT 200400Z 2006/2106 14004KT CAVOK 
     BECMG 2009/2011 08020KT
       
FYLZ 200500Z AUTO 04004KT //// // ////// 14/11 Q1013
TAF FYLZ 200500Z 2006/2015 04004KT CAVOK 
     BECMG 2010/2012 18010KT
       
FYML 200500Z AUTO 19003KT //// // ////// 20/M06 Q1021
FYOA 200500Z 27005KT CAVOK 21/07 Q1014
TAF FYOA 200500Z 2006/2015 27005KT CAVOK 
     BECMG 2010/2012 9999 SCT040
       
TAF FYRU 200500Z 2006/2015 27004KT CAVOK 
     BECMG 2010/2012 04004KT 9999 SCT040TCU 
     PROB30 
     TEMPO 2012/2015 -TSRA FEW035CB
       
FYWB 200500Z 34001KT 9999 FEW056 11/09 Q1014
TAF FYWB 200400Z 2006/2106 00000KT CAVOK 
     BECMG 2006/2008 27010KT 9999 BKN012 
     BECMG 2007/2009 CAVOK